sensor_id;sensor_type;location;lat;lon;timestamp;P1;durP1;ratioP1;P2;durP2;ratioP2
76566;SDS011;65428;53.194;6.132;2023-03-07T00:01:31;17.40;;;5.13;;
76566;SDS011;65428;53.194;6.132;2023-03-07T00:03:58;22.03;;;4.40;;
76566;SDS011;65428;53.194;6.132;2023-03-07T00:06:24;14.60;;;3.85;;
76566;SDS011;65428;53.194;6.132;2023-03-07T00:08:51;16.38;;;3.95;;
76566;SDS011;65428;53.194;6.132;2023-03-07T00:11:18;16.80;;;4.28;;
76566;SDS011;65428;53.194;6.132;2023-03-07T00:13:44;18.35;;;3.60;;
76566;SDS011;65428;53.194;6.132;2023-03-07T00:16:11;15.95;;;3.38;;
76566;SDS011;65428;53.194;6.132;2023-03-07T00:18:38;17.70;;;3.75;;
76566;SDS011;65428;53.194;6.132;2023-03-07T00:21:06;16.00;;;3.22;;
76566;SDS011;65428;53.194;6.132;2023-03-07T00:23:33;19.00;;;2.80;;
76566;SDS011;65428;53.194;6.132;2023-03-07T00:26:02;15.20;;;1.40;;
76566;SDS011;65428;53.194;6.132;2023-03-07T00:28:41;18.27;;;1.85;;
76566;SDS011;65428;53.194;6.132;2023-03-07T00:31:09;14.20;;;1.30;;
76566;SDS011;65428;53.194;6.132;2023-03-07T00:33:35;14.82;;;0.90;;
76566;SDS011;65428;53.194;6.132;2023-03-07T00:36:03;18.43;;;1.87;;
76566;SDS011;65428;53.194;6.132;2023-03-07T00:38:47;18.15;;;1.50;;
76566;SDS011;65428;53.194;6.132;2023-03-07T00:41:15;16.70;;;1.50;;
76566;SDS011;65428;53.194;6.132;2023-03-07T00:43:43;19.17;;;1.30;;
76566;SDS011;65428;53.194;6.132;2023-03-07T00:46:11;14.55;;;1.20;;
76566;SDS011;65428;53.194;6.132;2023-03-07T00:48:38;16.63;;;1.48;;
76566;SDS011;65428;53.194;6.132;2023-03-07T00:51:05;16.27;;;1.40;;
76566;SDS011;65428;53.194;6.132;2023-03-07T00:53:33;18.10;;;1.20;;
76566;SDS011;65428;53.194;6.132;2023-03-07T00:56:00;18.63;;;1.20;;
76566;SDS011;65428;53.194;6.132;2023-03-07T00:58:30;18.35;;;1.50;;
76566;SDS011;65428;53.194;6.132;2023-03-07T01:00:58;16.75;;;1.55;;
76566;SDS011;65428;53.194;6.132;2023-03-07T01:03:24;18.42;;;1.10;;
76566;SDS011;65428;53.194;6.132;2023-03-07T01:05:51;17.83;;;1.30;;
76566;SDS011;65428;53.194;6.132;2023-03-07T01:08:18;13.48;;;1.30;;
76566;SDS011;65428;53.194;6.132;2023-03-07T01:10:44;12.77;;;1.40;;
76566;SDS011;65428;53.194;6.132;2023-03-07T01:13:10;12.00;;;1.00;;
76566;SDS011;65428;53.194;6.132;2023-03-07T01:15:36;11.52;;;1.00;;
76566;SDS011;65428;53.194;6.132;2023-03-07T01:18:03;13.27;;;0.70;;
76566;SDS011;65428;53.194;6.132;2023-03-07T01:20:34;11.05;;;1.40;;
76566;SDS011;65428;53.194;6.132;2023-03-07T01:23:00;10.57;;;0.70;;
76566;SDS011;65428;53.194;6.132;2023-03-07T01:25:27;10.27;;;0.90;;
76566;SDS011;65428;53.194;6.132;2023-03-07T01:27:53;7.90;;;0.93;;
76566;SDS011;65428;53.194;6.132;2023-03-07T01:30:23;8.32;;;1.02;;
76566;SDS011;65428;53.194;6.132;2023-03-07T01:32:53;12.73;;;1.65;;
76566;SDS011;65428;53.194;6.132;2023-03-07T01:35:20;10.55;;;1.08;;
76566;SDS011;65428;53.194;6.132;2023-03-07T01:37:47;13.57;;;1.40;;
76566;SDS011;65428;53.194;6.132;2023-03-07T01:40:13;9.50;;;0.70;;
76566;SDS011;65428;53.194;6.132;2023-03-07T01:42:39;14.93;;;0.98;;
76566;SDS011;65428;53.194;6.132;2023-03-07T01:47:33;11.53;;;1.07;;
76566;SDS011;65428;53.194;6.132;2023-03-07T01:49:59;16.08;;;1.50;;
76566;SDS011;65428;53.194;6.132;2023-03-07T01:52:35;8.80;;;0.85;;
76566;SDS011;65428;53.194;6.132;2023-03-07T01:55:05;10.35;;;0.68;;
76566;SDS011;65428;53.194;6.132;2023-03-07T01:57:37;8.73;;;1.10;;
76566;SDS011;65428;53.194;6.132;2023-03-07T02:00:07;9.68;;;1.10;;
76566;SDS011;65428;53.194;6.132;2023-03-07T02:02:36;11.65;;;0.75;;
76566;SDS011;65428;53.194;6.132;2023-03-07T02:05:19;12.17;;;1.30;;
76566;SDS011;65428;53.194;6.132;2023-03-07T02:07:48;8.15;;;0.70;;
76566;SDS011;65428;53.194;6.132;2023-03-07T02:10:15;8.95;;;0.88;;
76566;SDS011;65428;53.194;6.132;2023-03-07T02:12:43;10.55;;;0.65;;
76566;SDS011;65428;53.194;6.132;2023-03-07T02:15:09;8.70;;;0.65;;
76566;SDS011;65428;53.194;6.132;2023-03-07T02:17:36;7.82;;;0.50;;
76566;SDS011;65428;53.194;6.132;2023-03-07T02:20:16;8.32;;;0.70;;
76566;SDS011;65428;53.194;6.132;2023-03-07T02:22:48;10.20;;;0.73;;
76566;SDS011;65428;53.194;6.132;2023-03-07T02:27:55;10.02;;;0.57;;
76566;SDS011;65428;53.194;6.132;2023-03-07T02:30:22;9.57;;;0.70;;
76566;SDS011;65428;53.194;6.132;2023-03-07T02:32:47;8.20;;;0.73;;
76566;SDS011;65428;53.194;6.132;2023-03-07T02:35:14;11.13;;;1.20;;
76566;SDS011;65428;53.194;6.132;2023-03-07T02:37:44;7.80;;;0.70;;
76566;SDS011;65428;53.194;6.132;2023-03-07T02:40:13;7.30;;;0.43;;
76566;SDS011;65428;53.194;6.132;2023-03-07T02:42:42;8.60;;;0.70;;
76566;SDS011;65428;53.194;6.132;2023-03-07T02:45:10;8.18;;;0.85;;
76566;SDS011;65428;53.194;6.132;2023-03-07T02:47:38;10.23;;;0.57;;
76566;SDS011;65428;53.194;6.132;2023-03-07T02:50:04;9.52;;;1.15;;
76566;SDS011;65428;53.194;6.132;2023-03-07T02:52:30;12.90;;;0.93;;
76566;SDS011;65428;53.194;6.132;2023-03-07T02:54:55;9.38;;;0.70;;
76566;SDS011;65428;53.194;6.132;2023-03-07T02:57:22;7.70;;;0.90;;
76566;SDS011;65428;53.194;6.132;2023-03-07T02:59:48;9.00;;;0.50;;
76566;SDS011;65428;53.194;6.132;2023-03-07T03:02:14;9.30;;;0.60;;
76566;SDS011;65428;53.194;6.132;2023-03-07T03:04:40;8.57;;;0.68;;
76566;SDS011;65428;53.194;6.132;2023-03-07T03:07:05;9.25;;;0.88;;
76566;SDS011;65428;53.194;6.132;2023-03-07T03:09:31;9.73;;;0.70;;
76566;SDS011;65428;53.194;6.132;2023-03-07T03:11:57;9.65;;;1.10;;
76566;SDS011;65428;53.194;6.132;2023-03-07T03:14:23;9.10;;;0.60;;
76566;SDS011;65428;53.194;6.132;2023-03-07T03:16:50;9.40;;;0.55;;
76566;SDS011;65428;53.194;6.132;2023-03-07T03:19:17;8.02;;;0.80;;
76566;SDS011;65428;53.194;6.132;2023-03-07T03:21:42;7.68;;;0.45;;
76566;SDS011;65428;53.194;6.132;2023-03-07T03:24:08;9.27;;;0.70;;
76566;SDS011;65428;53.194;6.132;2023-03-07T03:26:35;5.70;;;0.50;;
76566;SDS011;65428;53.194;6.132;2023-03-07T03:29:01;8.10;;;0.60;;
76566;SDS011;65428;53.194;6.132;2023-03-07T03:31:27;7.43;;;0.50;;
76566;SDS011;65428;53.194;6.132;2023-03-07T03:33:54;7.65;;;0.60;;
76566;SDS011;65428;53.194;6.132;2023-03-07T03:36:20;8.52;;;0.50;;
76566;SDS011;65428;53.194;6.132;2023-03-07T03:38:51;7.83;;;0.70;;
76566;SDS011;65428;53.194;6.132;2023-03-07T03:41:17;10.77;;;0.60;;
76566;SDS011;65428;53.194;6.132;2023-03-07T03:43:43;5.87;;;0.40;;
76566;SDS011;65428;53.194;6.132;2023-03-07T03:46:08;7.85;;;1.05;;
76566;SDS011;65428;53.194;6.132;2023-03-07T03:48:34;6.78;;;0.82;;
76566;SDS011;65428;53.194;6.132;2023-03-07T03:51:04;11.88;;;1.00;;
76566;SDS011;65428;53.194;6.132;2023-03-07T03:53:32;7.83;;;1.00;;
76566;SDS011;65428;53.194;6.132;2023-03-07T03:56:02;6.65;;;0.50;;
76566;SDS011;65428;53.194;6.132;2023-03-07T03:58:39;7.55;;;0.60;;
76566;SDS011;65428;53.194;6.132;2023-03-07T04:01:05;9.68;;;0.82;;
76566;SDS011;65428;53.194;6.132;2023-03-07T04:03:40;8.80;;;0.70;;
76566;SDS011;65428;53.194;6.132;2023-03-07T04:06:08;9.85;;;1.05;;
76566;SDS011;65428;53.194;6.132;2023-03-07T04:08:36;7.13;;;0.63;;
76566;SDS011;65428;53.194;6.132;2023-03-07T04:11:03;10.30;;;0.90;;
76566;SDS011;65428;53.194;6.132;2023-03-07T04:13:29;7.05;;;1.15;;
76566;SDS011;65428;53.194;6.132;2023-03-07T04:15:55;8.93;;;1.10;;
76566;SDS011;65428;53.194;6.132;2023-03-07T04:18:21;9.13;;;0.93;;
76566;SDS011;65428;53.194;6.132;2023-03-07T04:20:48;8.05;;;0.50;;
76566;SDS011;65428;53.194;6.132;2023-03-07T04:23:14;8.40;;;0.90;;
76566;SDS011;65428;53.194;6.132;2023-03-07T04:25:51;9.37;;;0.67;;
76566;SDS011;65428;53.194;6.132;2023-03-07T04:28:25;9.00;;;0.60;;
76566;SDS011;65428;53.194;6.132;2023-03-07T04:31:11;8.05;;;0.70;;
76566;SDS011;65428;53.194;6.132;2023-03-07T04:33:39;9.77;;;1.13;;
76566;SDS011;65428;53.194;6.132;2023-03-07T04:36:05;9.27;;;1.00;;
76566;SDS011;65428;53.194;6.132;2023-03-07T04:38:31;7.50;;;0.47;;
76566;SDS011;65428;53.194;6.132;2023-03-07T04:40:57;8.13;;;0.90;;
76566;SDS011;65428;53.194;6.132;2023-03-07T04:43:23;9.18;;;0.52;;
76566;SDS011;65428;53.194;6.132;2023-03-07T04:45:48;7.37;;;0.80;;
76566;SDS011;65428;53.194;6.132;2023-03-07T04:48:16;10.07;;;0.95;;
76566;SDS011;65428;53.194;6.132;2023-03-07T04:50:42;9.20;;;0.80;;
76566;SDS011;65428;53.194;6.132;2023-03-07T04:53:07;11.02;;;0.75;;
76566;SDS011;65428;53.194;6.132;2023-03-07T04:55:33;8.13;;;0.60;;
76566;SDS011;65428;53.194;6.132;2023-03-07T04:57:58;12.40;;;1.10;;
76566;SDS011;65428;53.194;6.132;2023-03-07T05:00:24;8.40;;;0.70;;
76566;SDS011;65428;53.194;6.132;2023-03-07T05:02:50;7.17;;;0.40;;
76566;SDS011;65428;53.194;6.132;2023-03-07T05:05:15;9.27;;;0.70;;
76566;SDS011;65428;53.194;6.132;2023-03-07T05:07:41;11.07;;;0.60;;
76566;SDS011;65428;53.194;6.132;2023-03-07T05:10:08;7.30;;;0.57;;
76566;SDS011;65428;53.194;6.132;2023-03-07T05:12:34;12.27;;;1.00;;
76566;SDS011;65428;53.194;6.132;2023-03-07T05:15:00;12.68;;;0.95;;
76566;SDS011;65428;53.194;6.132;2023-03-07T05:17:26;9.30;;;0.90;;
76566;SDS011;65428;53.194;6.132;2023-03-07T05:19:54;12.13;;;1.40;;
76566;SDS011;65428;53.194;6.132;2023-03-07T05:22:20;7.70;;;0.70;;
76566;SDS011;65428;53.194;6.132;2023-03-07T05:24:46;7.50;;;0.50;;
76566;SDS011;65428;53.194;6.132;2023-03-07T05:27:11;6.00;;;0.30;;
76566;SDS011;65428;53.194;6.132;2023-03-07T05:29:37;7.85;;;0.85;;
76566;SDS011;65428;53.194;6.132;2023-03-07T05:32:03;8.37;;;0.67;;
76566;SDS011;65428;53.194;6.132;2023-03-07T05:34:29;8.03;;;0.80;;
76566;SDS011;65428;53.194;6.132;2023-03-07T05:36:55;5.97;;;0.33;;
76566;SDS011;65428;53.194;6.132;2023-03-07T05:39:22;6.47;;;0.40;;
76566;SDS011;65428;53.194;6.132;2023-03-07T05:41:49;6.97;;;0.50;;
76566;SDS011;65428;53.194;6.132;2023-03-07T05:44:15;5.43;;;0.35;;
76566;SDS011;65428;53.194;6.132;2023-03-07T05:46:40;8.52;;;0.47;;
76566;SDS011;65428;53.194;6.132;2023-03-07T05:49:06;7.77;;;0.50;;
76566;SDS011;65428;53.194;6.132;2023-03-07T05:51:32;6.83;;;0.57;;
76566;SDS011;65428;53.194;6.132;2023-03-07T05:53:57;7.03;;;0.55;;
76566;SDS011;65428;53.194;6.132;2023-03-07T05:56:23;8.13;;;0.80;;
76566;SDS011;65428;53.194;6.132;2023-03-07T05:58:48;9.23;;;0.77;;
76566;SDS011;65428;53.194;6.132;2023-03-07T06:01:14;7.05;;;0.60;;
76566;SDS011;65428;53.194;6.132;2023-03-07T06:03:39;6.72;;;1.50;;
76566;SDS011;65428;53.194;6.132;2023-03-07T06:06:06;6.07;;;0.70;;
76566;SDS011;65428;53.194;6.132;2023-03-07T06:08:32;7.47;;;0.50;;
76566;SDS011;65428;53.194;6.132;2023-03-07T06:10:58;6.78;;;0.60;;
76566;SDS011;65428;53.194;6.132;2023-03-07T06:13:24;5.83;;;0.50;;
76566;SDS011;65428;53.194;6.132;2023-03-07T06:15:51;6.47;;;0.60;;
76566;SDS011;65428;53.194;6.132;2023-03-07T06:18:18;5.97;;;0.77;;
76566;SDS011;65428;53.194;6.132;2023-03-07T06:20:52;7.47;;;0.73;;
76566;SDS011;65428;53.194;6.132;2023-03-07T06:23:29;5.95;;;0.60;;
76566;SDS011;65428;53.194;6.132;2023-03-07T06:25:57;5.40;;;0.28;;
76566;SDS011;65428;53.194;6.132;2023-03-07T06:28:23;6.85;;;0.50;;
76566;SDS011;65428;53.194;6.132;2023-03-07T06:30:49;4.17;;;0.40;;
76566;SDS011;65428;53.194;6.132;2023-03-07T06:33:14;5.10;;;0.55;;
76566;SDS011;65428;53.194;6.132;2023-03-07T06:35:41;3.28;;;0.20;;
76566;SDS011;65428;53.194;6.132;2023-03-07T06:38:07;6.00;;;0.40;;
76566;SDS011;65428;53.194;6.132;2023-03-07T06:40:34;2.43;;;0.20;;
76566;SDS011;65428;53.194;6.132;2023-03-07T06:43:00;4.85;;;0.20;;
76566;SDS011;65428;53.194;6.132;2023-03-07T06:45:26;4.33;;;0.20;;
76566;SDS011;65428;53.194;6.132;2023-03-07T06:47:52;3.90;;;0.20;;
76566;SDS011;65428;53.194;6.132;2023-03-07T06:50:18;2.53;;;0.13;;
76566;SDS011;65428;53.194;6.132;2023-03-07T06:52:43;3.03;;;0.10;;
76566;SDS011;65428;53.194;6.132;2023-03-07T06:55:09;4.68;;;0.30;;
76566;SDS011;65428;53.194;6.132;2023-03-07T06:57:35;4.00;;;0.20;;
76566;SDS011;65428;53.194;6.132;2023-03-07T07:00:01;3.75;;;0.20;;
76566;SDS011;65428;53.194;6.132;2023-03-07T07:02:28;5.47;;;0.30;;
76566;SDS011;65428;53.194;6.132;2023-03-07T07:04:53;3.90;;;0.30;;
76566;SDS011;65428;53.194;6.132;2023-03-07T07:07:21;4.70;;;0.30;;
76566;SDS011;65428;53.194;6.132;2023-03-07T07:09:47;5.20;;;0.30;;
76566;SDS011;65428;53.194;6.132;2023-03-07T07:12:12;4.90;;;0.37;;
76566;SDS011;65428;53.194;6.132;2023-03-07T07:14:38;5.32;;;0.47;;
76566;SDS011;65428;53.194;6.132;2023-03-07T07:17:04;6.88;;;0.50;;
76566;SDS011;65428;53.194;6.132;2023-03-07T07:19:29;6.13;;;0.30;;
76566;SDS011;65428;53.194;6.132;2023-03-07T07:21:55;7.38;;;0.63;;
76566;SDS011;65428;53.194;6.132;2023-03-07T07:24:21;5.40;;;0.30;;
76566;SDS011;65428;53.194;6.132;2023-03-07T07:26:47;5.60;;;0.40;;
76566;SDS011;65428;53.194;6.132;2023-03-07T07:29:13;5.63;;;0.45;;
76566;SDS011;65428;53.194;6.132;2023-03-07T07:31:39;6.80;;;0.50;;
76566;SDS011;65428;53.194;6.132;2023-03-07T07:34:05;5.53;;;0.47;;
76566;SDS011;65428;53.194;6.132;2023-03-07T07:36:31;7.57;;;0.53;;
76566;SDS011;65428;53.194;6.132;2023-03-07T07:38:58;7.57;;;0.40;;
76566;SDS011;65428;53.194;6.132;2023-03-07T07:41:29;5.93;;;0.20;;
76566;SDS011;65428;53.194;6.132;2023-03-07T07:43:55;5.60;;;0.40;;
76566;SDS011;65428;53.194;6.132;2023-03-07T07:46:21;4.00;;;0.45;;
76566;SDS011;65428;53.194;6.132;2023-03-07T07:48:47;5.77;;;0.43;;
76566;SDS011;65428;53.194;6.132;2023-03-07T07:51:13;4.13;;;0.27;;
76566;SDS011;65428;53.194;6.132;2023-03-07T07:53:39;6.13;;;0.38;;
76566;SDS011;65428;53.194;6.132;2023-03-07T07:56:04;4.78;;;0.35;;
76566;SDS011;65428;53.194;6.132;2023-03-07T07:58:30;6.03;;;0.30;;
76566;SDS011;65428;53.194;6.132;2023-03-07T08:00:56;4.40;;;0.30;;
76566;SDS011;65428;53.194;6.132;2023-03-07T08:03:22;4.83;;;0.60;;
76566;SDS011;65428;53.194;6.132;2023-03-07T08:05:47;5.53;;;0.37;;
76566;SDS011;65428;53.194;6.132;2023-03-07T08:08:13;5.70;;;0.25;;
76566;SDS011;65428;53.194;6.132;2023-03-07T08:10:40;3.45;;;0.30;;
76566;SDS011;65428;53.194;6.132;2023-03-07T08:13:08;5.20;;;0.70;;
76566;SDS011;65428;53.194;6.132;2023-03-07T08:15:36;6.18;;;0.70;;
76566;SDS011;65428;53.194;6.132;2023-03-07T08:18:02;6.30;;;0.40;;
76566;SDS011;65428;53.194;6.132;2023-03-07T08:20:28;7.67;;;0.90;;
76566;SDS011;65428;53.194;6.132;2023-03-07T08:22:53;6.97;;;0.55;;
76566;SDS011;65428;53.194;6.132;2023-03-07T08:25:20;7.88;;;0.60;;
76566;SDS011;65428;53.194;6.132;2023-03-07T08:27:48;5.10;;;0.45;;
76566;SDS011;65428;53.194;6.132;2023-03-07T08:30:19;6.57;;;0.60;;
76566;SDS011;65428;53.194;6.132;2023-03-07T08:32:47;3.47;;;0.30;;
76566;SDS011;65428;53.194;6.132;2023-03-07T08:35:14;6.30;;;0.43;;
76566;SDS011;65428;53.194;6.132;2023-03-07T08:37:40;6.67;;;0.50;;
76566;SDS011;65428;53.194;6.132;2023-03-07T08:40:06;4.93;;;0.30;;
76566;SDS011;65428;53.194;6.132;2023-03-07T08:42:32;5.50;;;0.70;;
76566;SDS011;65428;53.194;6.132;2023-03-07T08:44:57;6.23;;;0.40;;
76566;SDS011;65428;53.194;6.132;2023-03-07T08:47:23;4.57;;;0.40;;
76566;SDS011;65428;53.194;6.132;2023-03-07T08:49:49;4.35;;;0.35;;
76566;SDS011;65428;53.194;6.132;2023-03-07T08:52:14;7.40;;;0.50;;
76566;SDS011;65428;53.194;6.132;2023-03-07T08:54:40;5.13;;;0.30;;
76566;SDS011;65428;53.194;6.132;2023-03-07T08:57:06;6.97;;;0.30;;
76566;SDS011;65428;53.194;6.132;2023-03-07T08:59:32;8.23;;;0.70;;
76566;SDS011;65428;53.194;6.132;2023-03-07T09:01:57;5.23;;;0.50;;
76566;SDS011;65428;53.194;6.132;2023-03-07T09:04:23;6.97;;;0.32;;
76566;SDS011;65428;53.194;6.132;2023-03-07T09:06:48;7.78;;;0.40;;
76566;SDS011;65428;53.194;6.132;2023-03-07T09:09:14;6.43;;;0.40;;
76566;SDS011;65428;53.194;6.132;2023-03-07T09:11:40;6.30;;;0.67;;
76566;SDS011;65428;53.194;6.132;2023-03-07T09:14:06;3.57;;;0.30;;
76566;SDS011;65428;53.194;6.132;2023-03-07T09:16:31;6.70;;;0.40;;
76566;SDS011;65428;53.194;6.132;2023-03-07T09:18:57;6.32;;;0.50;;
76566;SDS011;65428;53.194;6.132;2023-03-07T09:21:23;6.13;;;0.53;;
76566;SDS011;65428;53.194;6.132;2023-03-07T09:23:48;8.07;;;0.50;;
76566;SDS011;65428;53.194;6.132;2023-03-07T09:26:14;7.18;;;0.50;;
76566;SDS011;65428;53.194;6.132;2023-03-07T09:28:40;6.53;;;0.50;;
76566;SDS011;65428;53.194;6.132;2023-03-07T09:31:06;5.85;;;0.40;;
76566;SDS011;65428;53.194;6.132;2023-03-07T09:33:33;9.07;;;0.73;;
76566;SDS011;65428;53.194;6.132;2023-03-07T09:35:59;8.60;;;0.70;;
76566;SDS011;65428;53.194;6.132;2023-03-07T09:38:27;8.02;;;0.60;;
76566;SDS011;65428;53.194;6.132;2023-03-07T09:40:53;11.70;;;1.60;;
76566;SDS011;65428;53.194;6.132;2023-03-07T09:43:20;7.97;;;0.50;;
76566;SDS011;65428;53.194;6.132;2023-03-07T09:54:13;5.82;;;0.63;;
76566;SDS011;65428;53.194;6.132;2023-03-07T09:59:30;5.65;;;0.50;;
76566;SDS011;65428;53.194;6.132;2023-03-07T10:05:18;7.32;;;0.77;;
76566;SDS011;65428;53.194;6.132;2023-03-07T10:08:04;6.55;;;0.63;;
76566;SDS011;65428;53.194;6.132;2023-03-07T10:15:47;6.93;;;0.57;;
76566;SDS011;65428;53.194;6.132;2023-03-07T10:28:48;6.63;;;0.47;;
76566;SDS011;65428;53.194;6.132;2023-03-07T10:31:25;9.48;;;0.95;;
76566;SDS011;65428;53.194;6.132;2023-03-07T10:33:57;6.70;;;0.43;;
76566;SDS011;65428;53.194;6.132;2023-03-07T10:39:02;7.90;;;0.70;;
76566;SDS011;65428;53.194;6.132;2023-03-07T10:41:42;5.20;;;0.50;;
76566;SDS011;65428;53.194;6.132;2023-03-07T10:44:10;7.80;;;0.50;;
76566;SDS011;65428;53.194;6.132;2023-03-07T10:46:41;7.55;;;0.63;;
76566;SDS011;65428;53.194;6.132;2023-03-07T10:49:13;5.57;;;0.40;;
76566;SDS011;65428;53.194;6.132;2023-03-07T10:54:41;9.23;;;1.17;;
76566;SDS011;65428;53.194;6.132;2023-03-07T10:59:50;7.93;;;0.60;;
76566;SDS011;65428;53.194;6.132;2023-03-07T11:02:26;7.30;;;0.50;;
76566;SDS011;65428;53.194;6.132;2023-03-07T11:04:59;7.65;;;0.70;;
76566;SDS011;65428;53.194;6.132;2023-03-07T11:09:56;8.27;;;0.63;;
76566;SDS011;65428;53.194;6.132;2023-03-07T11:12:24;7.63;;;0.60;;
76566;SDS011;65428;53.194;6.132;2023-03-07T11:14:55;7.70;;;0.60;;
76566;SDS011;65428;53.194;6.132;2023-03-07T11:17:23;8.55;;;0.70;;
76566;SDS011;65428;53.194;6.132;2023-03-07T11:19:52;7.47;;;0.60;;
76566;SDS011;65428;53.194;6.132;2023-03-07T11:27:55;6.43;;;0.47;;
76566;SDS011;65428;53.194;6.132;2023-03-07T11:30:38;6.22;;;0.50;;
76566;SDS011;65428;53.194;6.132;2023-03-07T11:35:57;4.95;;;0.50;;
76566;SDS011;65428;53.194;6.132;2023-03-07T11:52:40;5.85;;;0.50;;
76566;SDS011;65428;53.194;6.132;2023-03-07T11:55:17;6.80;;;0.50;;
76566;SDS011;65428;53.194;6.132;2023-03-07T12:00:47;3.65;;;0.40;;
76566;SDS011;65428;53.194;6.132;2023-03-07T12:09:52;5.18;;;0.38;;
76566;SDS011;65428;53.194;6.132;2023-03-07T12:18:07;4.77;;;0.40;;
76566;SDS011;65428;53.194;6.132;2023-03-07T12:23:55;6.70;;;0.50;;
76566;SDS011;65428;53.194;6.132;2023-03-07T12:26:31;5.10;;;0.63;;
76566;SDS011;65428;53.194;6.132;2023-03-07T12:29:07;5.37;;;0.60;;
76566;SDS011;65428;53.194;6.132;2023-03-07T12:31:55;6.47;;;0.57;;
76566;SDS011;65428;53.194;6.132;2023-03-07T12:34:29;4.40;;;0.40;;
76566;SDS011;65428;53.194;6.132;2023-03-07T12:37:08;2.10;;;0.20;;
76566;SDS011;65428;53.194;6.132;2023-03-07T12:39:53;3.00;;;0.20;;
76566;SDS011;65428;53.194;6.132;2023-03-07T12:42:33;3.10;;;0.30;;
76566;SDS011;65428;53.194;6.132;2023-03-07T12:45:27;5.28;;;0.47;;
76566;SDS011;65428;53.194;6.132;2023-03-07T12:48:17;4.13;;;0.30;;
76566;SDS011;65428;53.194;6.132;2023-03-07T12:53:59;2.78;;;0.20;;
76566;SDS011;65428;53.194;6.132;2023-03-07T12:59:43;3.67;;;0.30;;
76566;SDS011;65428;53.194;6.132;2023-03-07T13:02:15;4.80;;;0.55;;
76566;SDS011;65428;53.194;6.132;2023-03-07T13:04:48;4.53;;;0.30;;
76566;SDS011;65428;53.194;6.132;2023-03-07T13:09:46;5.43;;;0.40;;
76566;SDS011;65428;53.194;6.132;2023-03-07T13:14:41;5.05;;;0.30;;
76566;SDS011;65428;53.194;6.132;2023-03-07T13:17:08;7.25;;;0.60;;
76566;SDS011;65428;53.194;6.132;2023-03-07T13:22:03;6.10;;;0.40;;
76566;SDS011;65428;53.194;6.132;2023-03-07T13:24:48;7.05;;;0.50;;
76566;SDS011;65428;53.194;6.132;2023-03-07T13:27:15;4.45;;;0.30;;
76566;SDS011;65428;53.194;6.132;2023-03-07T13:38:45;4.63;;;0.20;;
76566;SDS011;65428;53.194;6.132;2023-03-07T13:40:56;3.88;;;0.35;;
76566;SDS011;65428;53.194;6.132;2023-03-07T13:45:59;2.80;;;0.20;;
76566;SDS011;65428;53.194;6.132;2023-03-07T13:51:12;4.40;;;0.10;;
76566;SDS011;65428;53.194;6.132;2023-03-07T13:53:40;4.60;;;0.20;;
76566;SDS011;65428;53.194;6.132;2023-03-07T13:56:28;3.57;;;0.17;;
76566;SDS011;65428;53.194;6.132;2023-03-07T13:59:17;4.00;;;0.20;;
76566;SDS011;65428;53.194;6.132;2023-03-07T14:01:51;3.22;;;0.22;;
76566;SDS011;65428;53.194;6.132;2023-03-07T14:04:23;2.55;;;0.10;;
76566;SDS011;65428;53.194;6.132;2023-03-07T14:06:55;2.33;;;0.20;;
76566;SDS011;65428;53.194;6.132;2023-03-07T14:09:46;3.05;;;0.20;;
76566;SDS011;65428;53.194;6.132;2023-03-07T14:20:17;4.20;;;0.38;;
76566;SDS011;65428;53.194;6.132;2023-03-07T14:23:13;4.20;;;0.27;;
76566;SDS011;65428;53.194;6.132;2023-03-07T14:25:53;4.28;;;0.20;;
76566;SDS011;65428;53.194;6.132;2023-03-07T14:28:31;4.60;;;0.30;;
76566;SDS011;65428;53.194;6.132;2023-03-07T14:30:58;5.40;;;0.30;;
76566;SDS011;65428;53.194;6.132;2023-03-07T14:33:36;3.50;;;0.20;;
76566;SDS011;65428;53.194;6.132;2023-03-07T14:36:13;3.60;;;0.20;;
76566;SDS011;65428;53.194;6.132;2023-03-07T14:38:43;4.82;;;0.20;;
76566;SDS011;65428;53.194;6.132;2023-03-07T14:49:25;2.17;;;0.20;;
76566;SDS011;65428;53.194;6.132;2023-03-07T14:51:53;3.67;;;0.25;;
76566;SDS011;65428;53.194;6.132;2023-03-07T14:54:20;1.77;;;0.10;;
76566;SDS011;65428;53.194;6.132;2023-03-07T14:56:51;1.52;;;0.10;;
76566;SDS011;65428;53.194;6.132;2023-03-07T14:59:18;3.60;;;0.10;;
76566;SDS011;65428;53.194;6.132;2023-03-07T15:01:43;3.30;;;0.20;;
76566;SDS011;65428;53.194;6.132;2023-03-07T15:04:28;1.88;;;0.20;;
76566;SDS011;65428;53.194;6.132;2023-03-07T15:06:56;3.42;;;0.20;;
76566;SDS011;65428;53.194;6.132;2023-03-07T15:09:24;3.30;;;0.10;;
76566;SDS011;65428;53.194;6.132;2023-03-07T15:14:34;2.08;;;0.10;;
76566;SDS011;65428;53.194;6.132;2023-03-07T15:17:08;1.92;;;0.10;;
76566;SDS011;65428;53.194;6.132;2023-03-07T15:19:50;3.45;;;0.43;;
76566;SDS011;65428;53.194;6.132;2023-03-07T15:22:32;3.35;;;0.17;;
76566;SDS011;65428;53.194;6.132;2023-03-07T15:25:04;2.55;;;0.10;;
76566;SDS011;65428;53.194;6.132;2023-03-07T15:27:40;2.55;;;0.10;;
76566;SDS011;65428;53.194;6.132;2023-03-07T15:30:09;2.10;;;0.20;;
76566;SDS011;65428;53.194;6.132;2023-03-07T15:32:47;1.75;;;0.10;;
76566;SDS011;65428;53.194;6.132;2023-03-07T15:35:14;1.20;;;0.10;;
76566;SDS011;65428;53.194;6.132;2023-03-07T15:37:54;1.23;;;0.17;;
76566;SDS011;65428;53.194;6.132;2023-03-07T15:40:27;1.13;;;0.10;;
76566;SDS011;65428;53.194;6.132;2023-03-07T15:42:58;2.03;;;0.10;;
76566;SDS011;65428;53.194;6.132;2023-03-07T15:45:45;1.60;;;0.10;;
76566;SDS011;65428;53.194;6.132;2023-03-07T15:48:37;2.50;;;0.17;;
76566;SDS011;65428;53.194;6.132;2023-03-07T15:51:18;3.20;;;0.20;;
76566;SDS011;65428;53.194;6.132;2023-03-07T15:53:56;2.33;;;0.30;;
76566;SDS011;65428;53.194;6.132;2023-03-07T15:56:28;2.50;;;0.10;;
76566;SDS011;65428;53.194;6.132;2023-03-07T15:59:03;1.50;;;0.00;;
76566;SDS011;65428;53.194;6.132;2023-03-07T16:01:31;0.40;;;0.00;;
76566;SDS011;65428;53.194;6.132;2023-03-07T16:03:58;2.30;;;0.10;;
76566;SDS011;65428;53.194;6.132;2023-03-07T16:09:14;1.73;;;0.10;;
76566;SDS011;65428;53.194;6.132;2023-03-07T16:11:41;1.38;;;0.10;;
76566;SDS011;65428;53.194;6.132;2023-03-07T16:14:30;1.00;;;0.00;;
76566;SDS011;65428;53.194;6.132;2023-03-07T16:16:58;1.60;;;0.10;;
76566;SDS011;65428;53.194;6.132;2023-03-07T16:19:26;1.67;;;0.10;;
76566;SDS011;65428;53.194;6.132;2023-03-07T16:21:52;2.93;;;0.10;;
76566;SDS011;65428;53.194;6.132;2023-03-07T16:24:18;0.75;;;0.00;;
76566;SDS011;65428;53.194;6.132;2023-03-07T16:26:44;1.50;;;0.10;;
76566;SDS011;65428;53.194;6.132;2023-03-07T16:29:16;1.95;;;0.10;;
76566;SDS011;65428;53.194;6.132;2023-03-07T16:31:44;1.65;;;0.00;;
76566;SDS011;65428;53.194;6.132;2023-03-07T16:34:14;2.43;;;0.10;;
76566;SDS011;65428;53.194;6.132;2023-03-07T16:36:44;1.10;;;0.10;;
76566;SDS011;65428;53.194;6.132;2023-03-07T16:39:12;1.42;;;0.00;;
76566;SDS011;65428;53.194;6.132;2023-03-07T16:41:42;1.42;;;0.00;;
76566;SDS011;65428;53.194;6.132;2023-03-07T16:44:13;1.98;;;0.10;;
76566;SDS011;65428;53.194;6.132;2023-03-07T16:46:45;2.17;;;0.10;;
76566;SDS011;65428;53.194;6.132;2023-03-07T16:49:15;1.80;;;0.10;;
76566;SDS011;65428;53.194;6.132;2023-03-07T16:51:44;2.20;;;0.10;;
76566;SDS011;65428;53.194;6.132;2023-03-07T16:54:09;0.93;;;0.03;;
76566;SDS011;65428;53.194;6.132;2023-03-07T16:56:36;1.98;;;0.20;;
76566;SDS011;65428;53.194;6.132;2023-03-07T16:59:05;1.90;;;0.10;;
76566;SDS011;65428;53.194;6.132;2023-03-07T17:01:34;1.45;;;0.10;;
76566;SDS011;65428;53.194;6.132;2023-03-07T17:03:59;3.07;;;0.10;;
76566;SDS011;65428;53.194;6.132;2023-03-07T17:06:25;1.80;;;0.10;;
76566;SDS011;65428;53.194;6.132;2023-03-07T17:08:51;1.88;;;0.10;;
76566;SDS011;65428;53.194;6.132;2023-03-07T17:13:45;1.77;;;0.10;;
76566;SDS011;65428;53.194;6.132;2023-03-07T17:16:13;1.83;;;0.10;;